createdAt,value
2023-08-26T00:04:34.512Z,3.50
2023-08-26T00:07:24.710Z,2.92
2023-08-26T00:10:14.880Z,3.13
2023-08-26T00:13:05.070Z,3.05
2023-08-26T00:29:09.686Z,4.25
2023-08-26T00:31:59.948Z,4.07
2023-08-26T00:34:50.156Z,3.90
2023-08-26T00:37:40.366Z,3.92
2023-08-26T00:40:32.326Z,4.50
2023-08-26T00:43:22.845Z,4.72
2023-08-26T00:46:16.341Z,4.10
2023-08-26T00:49:07.435Z,4.07
2023-08-26T00:51:59.483Z,4.43
2023-08-26T00:54:49.842Z,4.40
2023-08-26T00:57:40.092Z,4.22
2023-08-26T01:00:30.397Z,5.55
2023-08-26T01:03:24.083Z,4.65
2023-08-26T01:06:14.305Z,4.68
2023-08-26T01:09:04.593Z,4.47
2023-08-26T01:12:05.583Z,4.43
2023-08-26T01:15:02.845Z,4.25
2023-08-26T01:17:54.869Z,4.97
2023-08-26T01:20:48.265Z,4.38
2023-08-26T01:23:44.933Z,4.18
2023-08-26T01:26:35.194Z,4.47
2023-08-26T01:29:25.810Z,4.57
2023-08-26T01:32:22.256Z,4.78
2023-08-26T01:35:17.220Z,4.32
2023-08-26T01:38:09.428Z,4.63
2023-08-26T01:41:06.121Z,4.30
2023-08-26T01:46:49.096Z,4.10
2023-08-26T01:49:39.438Z,4.72
2023-08-26T01:52:29.905Z,5.05
2023-08-26T01:55:20.229Z,4.95
2023-08-26T01:58:13.085Z,4.85
2023-08-26T02:01:08.098Z,4.57
2023-08-26T02:03:58.426Z,4.43
2023-08-26T02:06:48.695Z,5.18
2023-08-26T02:09:38.965Z,4.07
2023-08-26T02:12:29.955Z,4.68
2023-08-26T02:15:22.887Z,4.15
2023-08-26T02:18:13.141Z,4.00
2023-08-26T02:21:03.852Z,3.83
2023-08-26T02:23:54.069Z,4.47
2023-08-26T02:26:44.341Z,4.13
2023-08-26T02:29:34.642Z,5.05
2023-08-26T02:32:27.579Z,4.85
2023-08-26T02:35:17.913Z,4.20
2023-08-26T02:38:08.236Z,3.90
2023-08-26T02:40:59.193Z,5.22
2023-08-26T02:43:50.552Z,4.38
2023-08-26T02:46:40.742Z,3.92
2023-08-26T02:49:35.788Z,4.05
2023-08-26T02:52:26.251Z,5.18
2023-08-26T02:55:16.422Z,4.78
2023-08-26T02:58:06.952Z,4.68
2023-08-26T03:00:58.457Z,6.25
2023-08-26T03:03:48.796Z,6.75
2023-08-26T03:06:41.809Z,5.70
2023-08-26T03:09:34.398Z,6.95
2023-08-26T03:12:24.596Z,5.90
2023-08-26T03:15:14.890Z,6.43
2023-08-26T03:18:05.516Z,7.05
2023-08-26T03:20:55.775Z,8.10
2023-08-26T03:23:49.526Z,8.23
2023-08-26T03:37:16.155Z,8.40
2023-08-26T03:40:10.640Z,8.05
2023-08-26T03:43:01.537Z,8.95
2023-08-26T03:45:51.738Z,7.97
2023-08-26T03:48:42.049Z,7.07
2023-08-26T03:51:32.358Z,7.32
2023-08-26T03:54:25.724Z,7.05
2023-08-26T03:57:15.965Z,8.95
2023-08-26T04:00:07.146Z,9.02
2023-08-26T04:02:57.356Z,8.65
2023-08-26T04:05:47.658Z,7.55
2023-08-26T04:08:37.940Z,7.65
2023-08-26T04:11:30.722Z,6.75
2023-08-26T04:14:20.981Z,7.13
2023-08-26T04:17:11.207Z,6.47
2023-08-26T04:20:02.225Z,7.18
2023-08-26T04:22:52.405Z,6.80
2023-08-26T04:25:43.180Z,7.65
2023-08-26T04:28:36.037Z,7.65
2023-08-26T04:31:26.449Z,6.95
2023-08-26T04:34:16.722Z,7.75
2023-08-26T04:37:07.166Z,7.80
2023-08-26T04:39:57.342Z,8.35
2023-08-26T04:42:47.571Z,9.05
2023-08-26T04:45:41.936Z,7.45
2023-08-26T04:48:32.382Z,8.20
2023-08-26T04:51:22.572Z,8.38
2023-08-26T04:54:12.796Z,7.00
2023-08-26T04:57:03.578Z,7.25
2023-08-26T04:59:53.857Z,8.07
2023-08-26T05:02:46.797Z,8.05
2023-08-26T05:05:37.071Z,8.90
2023-08-26T05:08:27.253Z,9.50
2023-08-26T05:11:17.466Z,8.23
2023-08-26T05:14:07.751Z,7.55
2023-08-26T05:16:58.248Z,8.00
2023-08-26T05:19:52.791Z,7.07
2023-08-26T05:22:45.194Z,9.07
2023-08-26T05:25:35.442Z,7.65
2023-08-26T05:28:25.723Z,7.45
2023-08-26T05:31:16.097Z,7.68
2023-08-26T05:34:06.469Z,8.55
2023-08-26T05:36:59.265Z,8.57
2023-08-26T05:39:49.511Z,9.77
2023-08-26T05:42:40.423Z,9.60
2023-08-26T05:45:30.793Z,10.07
2023-08-26T05:48:21.002Z,9.45
2023-08-26T05:51:11.195Z,10.55
2023-08-26T05:54:04.151Z,11.00
2023-08-26T05:56:54.587Z,10.63
2023-08-26T05:59:45.070Z,11.38
2023-08-26T06:02:35.407Z,12.73
2023-08-26T06:05:25.639Z,13.68
2023-08-26T06:08:17.092Z,13.98
2023-08-26T06:11:09.929Z,13.65
2023-08-26T06:14:00.120Z,13.40
2023-08-26T06:16:51.038Z,12.52
2023-08-26T06:19:41.241Z,13.20
2023-08-26T06:22:31.876Z,12.95
2023-08-26T06:25:22.087Z,13.68
2023-08-26T06:28:14.861Z,12.15
2023-08-26T06:31:05.386Z,10.85
2023-08-26T06:34:01.407Z,10.40
2023-08-26T06:36:51.676Z,9.43
2023-08-26T06:39:41.891Z,9.43
2023-08-26T06:42:32.091Z,8.80
2023-08-26T06:45:28.120Z,8.23
2023-08-26T06:48:18.812Z,7.78
2023-08-26T06:51:09.152Z,7.15
2023-08-26T06:53:59.401Z,8.13
2023-08-26T06:56:49.709Z,6.13
2023-08-26T06:59:39.875Z,5.60
2023-08-26T07:02:32.730Z,4.93
2023-08-26T07:05:23.478Z,5.10
2023-08-26T07:08:13.756Z,5.57
2023-08-26T07:11:03.927Z,5.18
2023-08-26T07:13:54.227Z,5.25
2023-08-26T07:16:44.525Z,4.88
2023-08-26T07:19:37.330Z,5.28
2023-08-26T07:22:29.865Z,4.50
2023-08-26T07:25:21.535Z,3.97
2023-08-26T07:28:11.700Z,4.72
2023-08-26T07:31:05.732Z,4.00
2023-08-26T07:33:56.018Z,4.28
2023-08-26T07:36:48.825Z,3.88
2023-08-26T07:39:39.025Z,4.53
2023-08-26T07:42:29.276Z,3.90
2023-08-26T07:45:20.567Z,4.00
2023-08-26T07:51:03.922Z,3.45
2023-08-26T07:53:56.898Z,4.13
2023-08-26T07:56:47.114Z,3.75
2023-08-26T07:59:37.366Z,4.00
2023-08-26T08:02:27.663Z,4.03
2023-08-26T08:05:18.052Z,4.32
2023-08-26T08:08:08.611Z,4.28
2023-08-26T08:11:01.480Z,3.88
2023-08-26T08:13:51.906Z,3.95
2023-08-26T08:16:42.179Z,3.78
2023-08-26T08:19:32.362Z,3.60
2023-08-26T08:22:36.546Z,3.28
2023-08-26T08:25:26.893Z,3.05
2023-08-26T08:28:19.746Z,3.63
2023-08-26T08:31:10.040Z,3.40
2023-08-26T08:34:00.402Z,3.45
2023-08-26T08:36:50.739Z,3.63
2023-08-26T08:39:40.960Z,3.28
2023-08-26T08:42:36.049Z,3.45
2023-08-26T08:45:29.816Z,4.82
2023-08-26T08:48:21.304Z,5.10
2023-08-26T08:51:14.434Z,4.10
2023-08-26T08:54:06.693Z,3.13
2023-08-26T08:56:58.180Z,3.10
2023-08-26T08:59:49.514Z,1.55
2023-08-26T09:02:44.191Z,1.40
2023-08-26T09:05:34.838Z,1.35
2023-08-26T09:08:28.086Z,1.33
2023-08-26T09:11:19.502Z,0.90
2023-08-26T09:14:10.063Z,1.10
2023-08-26T09:17:01.508Z,1.38
2023-08-26T09:19:59.922Z,1.20
2023-08-26T09:22:50.296Z,1.23
2023-08-26T09:25:40.583Z,1.08
2023-08-26T09:28:30.799Z,0.90
2023-08-26T09:31:22.002Z,1.00
2023-08-26T09:34:12.275Z,1.30
2023-08-26T09:37:05.135Z,1.00
2023-08-26T09:39:55.398Z,0.80
2023-08-26T09:42:46.134Z,0.80
2023-08-26T09:45:39.796Z,0.80
2023-08-26T09:48:29.996Z,0.90
2023-08-26T09:51:28.953Z,0.80
2023-08-26T09:54:23.324Z,0.75
2023-08-26T09:57:13.593Z,0.88
2023-08-26T10:00:04.419Z,0.70
2023-08-26T10:03:05.420Z,0.60
2023-08-26T10:05:58.313Z,0.60
2023-08-26T10:08:55.635Z,0.80
2023-08-26T10:11:52.861Z,1.00
2023-08-26T10:14:44.438Z,0.70
2023-08-26T10:17:36.455Z,0.60
2023-08-26T10:20:27.005Z,0.63
2023-08-26T10:23:17.214Z,0.80
2023-08-26T10:26:08.227Z,0.88
2023-08-26T10:29:02.565Z,0.60
2023-08-26T10:31:52.885Z,0.90
2023-08-26T10:34:56.022Z,0.75
2023-08-26T10:37:49.494Z,0.70
2023-08-26T10:40:39.820Z,0.80
2023-08-26T10:43:30.019Z,0.80
2023-08-26T10:46:34.114Z,0.60
2023-08-26T10:49:26.722Z,0.75
2023-08-26T10:52:20.377Z,0.90
2023-08-26T10:55:16.925Z,0.70
2023-08-26T10:58:17.838Z,0.65
2023-08-26T11:01:08.297Z,0.82
2023-08-26T11:04:01.591Z,0.60
2023-08-26T11:06:52.095Z,1.08
2023-08-26T11:09:42.260Z,0.60
2023-08-26T11:12:33.312Z,0.68
2023-08-26T11:15:23.585Z,0.65
2023-08-26T11:18:14.929Z,0.70
2023-08-26T11:21:09.434Z,0.70
2023-08-26T11:24:02.161Z,0.77
2023-08-26T11:26:52.408Z,0.52
2023-08-26T11:29:42.634Z,0.70
2023-08-26T11:32:34.368Z,0.60
2023-08-26T11:35:27.608Z,0.70
2023-08-26T11:38:20.480Z,0.65
2023-08-26T11:41:11.657Z,0.55
2023-08-26T11:44:02.142Z,0.65
2023-08-26T11:46:55.201Z,0.60
2023-08-26T11:49:46.382Z,0.85
2023-08-26T11:52:36.957Z,0.52
2023-08-26T11:55:30.162Z,0.65
2023-08-26T11:58:21.891Z,0.50
2023-08-26T12:01:12.216Z,0.57
2023-08-26T12:04:02.486Z,0.60
2023-08-26T12:06:52.840Z,0.60
2023-08-26T12:09:43.589Z,0.52
2023-08-26T12:12:36.487Z,0.60
2023-08-26T12:15:26.703Z,0.50
2023-08-26T12:18:17.009Z,0.70
2023-08-26T12:21:07.361Z,0.60
2023-08-26T12:23:57.589Z,0.85
2023-08-26T12:26:48.564Z,0.60
2023-08-26T12:29:41.585Z,0.60
2023-08-26T12:32:31.724Z,0.50
2023-08-26T12:35:21.923Z,0.50
2023-08-26T12:38:12.148Z,0.65
2023-08-26T12:41:03.223Z,0.70
2023-08-26T12:43:56.568Z,0.90
2023-08-26T12:46:49.553Z,0.70
2023-08-26T12:49:39.792Z,0.68
2023-08-26T12:52:30.669Z,0.57
2023-08-26T12:55:21.353Z,0.60
2023-08-26T12:58:11.562Z,0.60
2023-08-26T13:01:01.879Z,0.70
2023-08-26T13:03:54.722Z,0.77
2023-08-26T13:06:45.154Z,0.90
2023-08-26T13:09:35.355Z,0.75
2023-08-26T13:12:25.593Z,0.90
2023-08-26T13:15:16.365Z,0.75
2023-08-26T13:18:07.065Z,0.80
2023-08-26T13:21:00.044Z,0.73
2023-08-26T13:23:50.599Z,0.63
2023-08-26T13:26:40.753Z,0.70
2023-08-26T13:29:31.011Z,0.80
2023-08-26T13:32:21.176Z,0.70
2023-08-26T13:35:12.101Z,0.80
2023-08-26T13:38:04.972Z,0.50
2023-08-26T13:40:55.194Z,0.80
2023-08-26T13:43:45.811Z,0.68
2023-08-26T13:46:35.994Z,0.50
2023-08-26T13:49:26.922Z,0.47
2023-08-26T13:52:18.247Z,0.65
2023-08-26T13:55:12.425Z,0.77
2023-08-26T13:58:03.182Z,0.68
2023-08-26T14:00:54.211Z,0.70
2023-08-26T14:03:44.551Z,0.70
2023-08-26T14:06:34.743Z,0.60
2023-08-26T14:09:26.483Z,0.60
2023-08-26T14:12:19.255Z,0.57
2023-08-26T14:15:12.032Z,0.60
2023-08-26T14:18:02.396Z,0.70
2023-08-26T14:20:53.885Z,0.60
2023-08-26T14:23:45.708Z,0.60
2023-08-26T14:26:37.766Z,0.70
2023-08-26T14:29:30.647Z,0.80
2023-08-26T14:32:20.940Z,0.50
2023-08-26T14:35:12.060Z,0.70
2023-08-26T14:38:02.596Z,0.70
2023-08-26T14:40:53.502Z,0.60
2023-08-26T14:43:43.956Z,0.50
2023-08-26T14:46:37.230Z,1.20
2023-08-26T14:49:28.004Z,0.80
2023-08-26T14:52:18.382Z,0.68
2023-08-26T14:55:09.745Z,0.63
2023-08-26T14:58:00.165Z,0.70
2023-08-26T15:00:50.559Z,0.70
2023-08-26T15:03:43.364Z,0.60
2023-08-26T15:06:33.602Z,0.80
2023-08-26T15:09:23.761Z,0.63
2023-08-26T15:12:14.635Z,0.70
2023-08-26T15:15:04.796Z,1.00
2023-08-26T15:17:55.030Z,0.80
2023-08-26T15:20:52.320Z,0.70
2023-08-26T15:23:43.209Z,0.70
2023-08-26T15:26:33.390Z,0.88
2023-08-26T15:29:23.702Z,0.60
2023-08-26T15:32:14.193Z,0.73
2023-08-26T15:35:04.634Z,0.60
2023-08-26T15:37:57.773Z,0.50
2023-08-26T15:40:54.677Z,0.80
2023-08-26T15:46:34.844Z,0.63
2023-08-26T15:49:25.078Z,0.90
2023-08-26T15:52:15.213Z,1.33
2023-08-26T15:55:08.724Z,0.80
2023-08-26T15:57:59.129Z,0.57
2023-08-26T16:00:50.023Z,0.80
2023-08-26T16:03:40.295Z,0.70
2023-08-26T16:06:30.520Z,0.70
2023-08-26T16:09:21.030Z,0.60
2023-08-26T16:12:17.875Z,0.98
2023-08-26T16:15:09.604Z,0.93
2023-08-26T16:17:59.798Z,0.50
2023-08-26T16:20:50.002Z,1.02
2023-08-26T16:23:40.194Z,0.80
2023-08-26T16:26:30.358Z,0.90
2023-08-26T16:29:23.154Z,0.88
2023-08-26T16:32:13.438Z,0.70
2023-08-26T16:35:05.037Z,0.90
2023-08-26T16:37:55.237Z,0.70
2023-08-26T16:40:45.422Z,0.80
2023-08-26T16:43:35.625Z,0.65
2023-08-26T16:46:28.464Z,0.80
2023-08-26T16:49:18.892Z,0.90
2023-08-26T16:52:09.355Z,0.75
2023-08-26T16:54:59.553Z,0.80
2023-08-26T16:57:49.752Z,0.90
2023-08-26T17:00:40.100Z,0.70
2023-08-26T17:03:32.908Z,0.50
2023-08-26T17:06:23.151Z,0.68
2023-08-26T17:09:13.459Z,0.60
2023-08-26T17:12:04.579Z,0.65
2023-08-26T17:14:54.866Z,0.95
2023-08-26T17:17:45.172Z,0.90
2023-08-26T17:20:38.022Z,0.80
2023-08-26T17:23:28.293Z,0.95
2023-08-26T17:26:18.527Z,1.20
2023-08-26T17:29:08.852Z,0.88
2023-08-26T17:31:59.121Z,1.10
2023-08-26T17:34:49.305Z,1.27
2023-08-26T17:37:42.314Z,1.17
2023-08-26T17:40:32.727Z,1.80
2023-08-26T17:43:23.184Z,2.28
2023-08-26T17:46:13.464Z,1.75
2023-08-26T17:49:03.945Z,3.67
2023-08-26T17:51:54.445Z,3.35
2023-08-26T17:54:47.258Z,3.50
2023-08-26T17:57:37.561Z,2.60
2023-08-26T18:00:27.749Z,2.42
2023-08-26T18:03:18.420Z,1.42
2023-08-26T18:06:08.672Z,2.42
2023-08-26T18:08:58.826Z,5.45
2023-08-26T18:11:51.812Z,7.40
2023-08-26T18:14:42.050Z,9.43
2023-08-26T18:17:33.044Z,2.67
2023-08-26T18:20:23.303Z,1.60
2023-08-26T18:23:13.549Z,1.10
2023-08-26T18:26:03.829Z,1.10
2023-08-26T18:28:56.844Z,0.90
2023-08-26T18:31:47.971Z,0.60
2023-08-26T18:34:38.889Z,0.93
2023-08-26T18:37:31.941Z,0.93
2023-08-26T18:40:25.547Z,0.98
2023-08-26T18:43:16.740Z,0.90
2023-08-26T18:46:09.825Z,1.00
2023-08-26T18:49:00.419Z,1.10
2023-08-26T18:51:50.617Z,1.67
2023-08-26T18:54:41.148Z,1.10
2023-08-26T18:57:31.451Z,1.15
2023-08-26T19:00:21.990Z,1.05
2023-08-26T19:03:15.068Z,1.08
2023-08-26T19:06:05.257Z,0.95
2023-08-26T19:08:55.470Z,1.15
2023-08-26T19:11:46.000Z,1.42
2023-08-26T19:14:36.197Z,1.30
2023-08-26T19:17:26.751Z,1.60
2023-08-26T19:20:19.832Z,1.25
2023-08-26T19:23:10.584Z,1.48
2023-08-26T19:26:00.770Z,2.08
2023-08-26T19:28:52.192Z,2.95
2023-08-26T19:31:42.516Z,3.35
2023-08-26T19:34:32.887Z,3.63
2023-08-26T19:37:25.914Z,3.30
2023-08-26T19:40:17.457Z,2.10
2023-08-26T19:43:08.510Z,2.10
2023-08-26T19:45:58.791Z,2.13
2023-08-26T19:48:56.051Z,1.90
2023-08-26T19:51:47.027Z,2.10
2023-08-26T19:54:40.232Z,1.63
2023-08-26T19:57:30.684Z,1.42
2023-08-26T20:00:21.371Z,1.30
2023-08-26T20:03:11.595Z,1.52
2023-08-26T20:06:02.063Z,1.77
2023-08-26T20:08:53.311Z,1.73
2023-08-26T20:11:46.822Z,1.38
2023-08-26T20:14:37.546Z,1.33
2023-08-26T20:17:28.042Z,1.17
2023-08-26T20:20:19.075Z,1.23
2023-08-26T20:23:09.358Z,1.20
2023-08-26T20:26:01.221Z,1.45
2023-08-26T20:28:54.435Z,1.30
2023-08-26T20:31:44.989Z,1.48
2023-08-26T20:34:35.282Z,1.23
2023-08-26T20:37:27.017Z,1.00
2023-08-26T20:40:17.972Z,1.58
2023-08-26T20:43:08.407Z,1.23
2023-08-26T20:46:01.598Z,1.08
2023-08-26T20:48:51.854Z,1.30
2023-08-26T20:51:42.221Z,1.30
2023-08-26T20:54:32.842Z,1.67
2023-08-26T20:57:23.556Z,1.10
2023-08-26T21:00:14.842Z,1.35
2023-08-26T21:03:08.618Z,1.75
2023-08-26T21:06:04.704Z,1.52
2023-08-26T21:08:54.990Z,1.60
2023-08-26T21:11:46.525Z,2.72
2023-08-26T21:14:36.815Z,2.92
2023-08-26T21:17:27.289Z,2.63
2023-08-26T21:20:20.504Z,2.90
2023-08-26T21:23:12.370Z,2.80
2023-08-26T21:26:02.952Z,3.10
2023-08-26T21:28:53.348Z,2.35
2023-08-26T21:31:43.839Z,1.95
2023-08-26T21:34:34.109Z,1.52
2023-08-26T21:37:27.189Z,1.50
2023-08-26T21:40:19.960Z,0.88
2023-08-26T21:43:12.723Z,1.00
2023-08-26T21:46:03.547Z,1.23
2023-08-26T21:48:54.419Z,1.15
2023-08-26T21:51:44.811Z,1.17
2023-08-26T21:54:37.667Z,1.10
2023-08-26T21:57:28.629Z,1.20
2023-08-26T22:00:19.441Z,1.30
2023-08-26T22:03:09.722Z,1.35
2023-08-26T22:06:00.473Z,1.10
2023-08-26T22:08:50.924Z,1.30
2023-08-26T22:11:43.777Z,1.40
2023-08-26T22:14:34.665Z,1.30
2023-08-26T22:17:27.356Z,1.35
2023-08-26T22:20:18.220Z,2.15
2023-08-26T22:23:08.940Z,1.90
2023-08-26T22:25:59.139Z,2.17
2023-08-26T22:28:51.913Z,2.33
2023-08-26T22:31:42.146Z,2.05
2023-08-26T22:34:32.516Z,2.00
2023-08-26T22:37:22.917Z,2.05
2023-08-26T22:40:15.921Z,2.20
2023-08-26T22:43:06.332Z,1.73
2023-08-26T22:45:59.241Z,1.80
2023-08-26T22:48:49.457Z,1.60
2023-08-26T22:51:39.676Z,1.48
2023-08-26T22:54:29.946Z,1.45
2023-08-26T22:57:20.509Z,1.75
2023-08-26T23:00:11.849Z,1.50
2023-08-26T23:03:04.644Z,1.50
2023-08-26T23:06:03.114Z,1.25
2023-08-26T23:08:53.300Z,1.70
2023-08-26T23:11:43.514Z,1.58
2023-08-26T23:14:33.787Z,1.60
2023-08-26T23:17:26.279Z,1.60
2023-08-26T23:20:19.346Z,1.38
2023-08-26T23:23:09.677Z,1.55
2023-08-26T23:25:59.837Z,1.35
2023-08-26T23:28:50.083Z,1.65
2023-08-26T23:31:40.408Z,1.40
2023-08-26T23:34:31.051Z,1.67
2023-08-26T23:37:23.829Z,1.42
2023-08-26T23:40:14.971Z,1.13
2023-08-26T23:43:05.294Z,1.30
2023-08-26T23:45:56.152Z,1.40
2023-08-26T23:48:46.355Z,1.35
2023-08-26T23:51:36.562Z,1.30
2023-08-26T23:54:29.367Z,1.42
2023-08-26T23:57:19.609Z,1.52
